createdAt,value
2018-07-23T00:01:19.775Z,96016.25
2018-07-23T00:03:50.687Z,96017.69
2018-07-23T00:06:20.910Z,96014.69
2018-07-23T00:08:55.347Z,96015.84
2018-07-23T00:11:26.539Z,96018.80
2018-07-23T00:13:57.395Z,96010.68
2018-07-23T00:16:30.071Z,96008.08
2018-07-23T00:19:01.314Z,96009.19
2018-07-23T00:21:32.217Z,96011.34
2018-07-23T00:24:03.727Z,96013.02
2018-07-23T00:26:38.427Z,96014.73
2018-07-23T00:29:09.037Z,96017.18
2018-07-23T00:31:40.303Z,96018.48
2018-07-23T00:34:10.786Z,96017.93
2018-07-23T00:36:41.552Z,96016.88
2018-07-23T00:39:11.774Z,96015.33
2018-07-23T00:41:46.392Z,96020.48
2018-07-23T00:44:17.490Z,96016.77
2018-07-23T00:46:53.211Z,96016.31
2018-07-23T00:49:24.495Z,96014.71
2018-07-23T00:51:55.573Z,96014.96
2018-07-23T00:54:25.910Z,96014.96
2018-07-23T00:56:55.993Z,96015.56
2018-07-23T00:59:27.109Z,96014.89
2018-07-23T01:02:00.064Z,96016.92
2018-07-23T01:04:32.892Z,96020.98
2018-07-23T01:07:04.511Z,96014.22
2018-07-23T01:09:35.359Z,96019.42
2018-07-23T01:12:07.557Z,96011.31
2018-07-23T01:14:38.527Z,96016.22
2018-07-23T01:17:10.394Z,96017.52
2018-07-23T01:19:43.423Z,96013.47
2018-07-23T01:22:15.977Z,96011.41
2018-07-23T01:24:46.671Z,96018.80
2018-07-23T01:27:16.887Z,96016.64
2018-07-23T01:29:47.024Z,96018.55
2018-07-23T01:32:18.943Z,96022.09
2018-07-23T01:34:49.209Z,96021.00
2018-07-23T01:37:24.452Z,96018.50
2018-07-23T01:39:55.107Z,96021.13
2018-07-23T01:42:25.514Z,96020.14
2018-07-23T01:44:57.017Z,96023.20
2018-07-23T01:47:27.761Z,96024.84
2018-07-23T01:49:58.621Z,96020.79
2018-07-23T01:52:29.358Z,96024.25
2018-07-23T01:54:59.486Z,96022.64
2018-07-23T01:57:32.766Z,96024.25
2018-07-23T02:00:05.557Z,96029.10
2018-07-23T02:02:36.746Z,96027.20
2018-07-23T02:05:07.381Z,96025.90
2018-07-23T02:07:37.672Z,96026.75
2018-07-23T02:10:07.911Z,96026.27
2018-07-23T02:12:38.411Z,96030.37
2018-07-23T02:15:08.658Z,96035.53
2018-07-23T02:17:39.497Z,96033.50
2018-07-23T02:20:10.001Z,96034.70
2018-07-23T02:22:40.186Z,96041.32
2018-07-23T02:25:10.488Z,96036.25
2018-07-23T02:27:41.051Z,96038.48
2018-07-23T02:30:11.444Z,96038.27
2018-07-23T02:32:41.688Z,96039.19
2018-07-23T02:35:16.052Z,96040.88
2018-07-23T02:37:46.641Z,96032.13
2018-07-23T02:40:16.877Z,96038.16
2018-07-23T02:42:49.682Z,96038.86
2018-07-23T02:45:19.806Z,96039.55
2018-07-23T02:47:51.003Z,96042.66
2018-07-23T02:50:22.583Z,96036.78
2018-07-23T02:52:54.632Z,96040.09
2018-07-23T02:55:24.887Z,96044.91
2018-07-23T02:57:55.983Z,96042.28
2018-07-23T03:00:29.863Z,96040.69
2018-07-23T03:03:00.164Z,96041.73
2018-07-23T03:05:31.273Z,96041.62
2018-07-23T03:08:02.771Z,96042.24
2018-07-23T03:10:33.032Z,96052.05
2018-07-23T03:13:03.256Z,96047.77
2018-07-23T03:15:34.028Z,96053.75
2018-07-23T03:18:06.656Z,96050.77
2018-07-23T03:20:37.490Z,96055.61
2018-07-23T03:23:07.803Z,96052.66
2018-07-23T03:25:39.159Z,96057.25
2018-07-23T03:28:09.426Z,96058.41
2018-07-23T03:30:39.702Z,96051.34
2018-07-23T03:33:09.843Z,96053.20
2018-07-23T03:35:40.091Z,96057.25
2018-07-23T03:38:10.417Z,96065.34
2018-07-23T03:40:41.292Z,96065.41
2018-07-23T03:43:11.925Z,96067.59
2018-07-23T03:45:43.168Z,96067.11
2018-07-23T03:48:19.142Z,96073.56
2018-07-23T03:50:49.401Z,96072.83
2018-07-23T03:53:19.562Z,96071.42
2018-07-23T03:55:50.440Z,96066.57
2018-07-23T03:58:20.614Z,96070.67
2018-07-23T04:00:50.818Z,96072.28
2018-07-23T04:03:21.224Z,96067.69
2018-07-23T04:05:55.209Z,96077.36
2018-07-23T04:08:25.454Z,96080.05
2018-07-23T04:10:56.520Z,96089.75
2018-07-23T04:13:26.945Z,96086.77
2018-07-23T04:15:57.149Z,96086.25
2018-07-23T04:18:27.269Z,96084.07
2018-07-23T04:20:58.455Z,96088.38
2018-07-23T04:23:29.263Z,96082.95
2018-07-23T04:25:59.362Z,96085.64
2018-07-23T04:28:29.534Z,96089.34
2018-07-23T04:30:59.737Z,96095.50
2018-07-23T04:33:30.463Z,96094.89
2018-07-23T04:36:00.929Z,96093.73
2018-07-23T04:38:33.792Z,96096.14
2018-07-23T04:41:04.312Z,96094.14
2018-07-23T04:43:34.702Z,96097.33
2018-07-23T04:46:06.906Z,96095.88
2018-07-23T04:48:37.302Z,96100.59
2018-07-23T04:51:08.092Z,96100.52
2018-07-23T04:53:38.272Z,96105.77
2018-07-23T04:56:08.601Z,96107.02
2018-07-23T04:58:39.599Z,96108.25
2018-07-23T05:01:09.874Z,96110.00
2018-07-23T05:03:40.706Z,96112.30
2018-07-23T05:06:16.230Z,96123.22
2018-07-23T05:08:46.522Z,96117.18
2018-07-23T05:11:16.966Z,96122.73
2018-07-23T05:13:49.714Z,96126.11
2018-07-23T05:16:20.375Z,96121.97
2018-07-23T05:18:50.551Z,96118.09
2018-07-23T05:21:21.788Z,96124.77
2018-07-23T05:23:52.038Z,96118.95
2018-07-23T05:26:23.446Z,96116.16
2018-07-23T05:28:53.752Z,96118.69
2018-07-23T05:31:23.926Z,96121.23
2018-07-23T05:33:54.804Z,96123.03
2018-07-23T05:36:24.956Z,96121.27
2018-07-23T05:38:55.131Z,96128.11
2018-07-23T05:41:25.402Z,96125.17
2018-07-23T05:43:55.930Z,96128.50
2018-07-23T05:46:26.110Z,96127.52
2018-07-23T05:48:58.417Z,96132.45
2018-07-23T05:51:28.587Z,96131.33
2018-07-23T05:53:58.762Z,96130.17
2018-07-23T05:56:28.923Z,96132.80
2018-07-23T05:58:59.421Z,96132.75
2018-07-23T06:01:31.208Z,96135.35
2018-07-23T06:04:04.783Z,96135.81
2018-07-23T06:06:35.443Z,96131.65
2018-07-23T06:09:09.376Z,96133.67
2018-07-23T06:11:41.061Z,96133.01
2018-07-23T06:14:12.469Z,96139.39
2018-07-23T06:16:49.605Z,96140.48
2018-07-23T06:19:21.447Z,96138.34
2018-07-23T06:21:51.585Z,96138.83
2018-07-23T06:24:25.714Z,96142.78
2018-07-23T06:26:56.521Z,96138.83
2018-07-23T06:29:28.066Z,96137.72
2018-07-23T06:31:58.671Z,96144.49
2018-07-23T06:34:29.590Z,96148.80
2018-07-23T06:36:59.758Z,96149.16
2018-07-23T06:39:29.980Z,96141.30
2018-07-23T06:42:01.211Z,96152.27
2018-07-23T06:44:31.664Z,96154.98
2018-07-23T06:47:02.242Z,96154.42
2018-07-23T06:49:32.493Z,96148.41
2018-07-23T06:52:07.893Z,96144.69
2018-07-23T06:54:38.277Z,96146.11
2018-07-23T06:57:09.813Z,96148.58
2018-07-23T06:59:40.734Z,96146.82
2018-07-23T07:02:11.099Z,96139.59
2018-07-23T07:04:41.765Z,96138.54
2018-07-23T07:07:14.397Z,96141.41
2018-07-23T07:09:46.027Z,96142.83
2018-07-23T07:12:16.235Z,96137.14
2018-07-23T07:14:47.686Z,96141.66
2018-07-23T07:17:20.637Z,96133.48
2018-07-23T07:19:51.650Z,96143.33
2018-07-23T07:22:21.829Z,96143.36
2018-07-23T07:24:52.545Z,96141.41
2018-07-23T07:27:25.142Z,96143.47
2018-07-23T07:29:57.141Z,96143.64
2018-07-23T07:32:28.357Z,96141.17
2018-07-23T07:34:58.438Z,96146.38
2018-07-23T07:37:28.856Z,96153.38
2018-07-23T07:40:00.509Z,96147.77
2018-07-23T07:42:31.298Z,96143.92
2018-07-23T07:45:03.782Z,96144.06
2018-07-23T07:47:36.972Z,96143.18
2018-07-23T07:50:07.730Z,96142.94
2018-07-23T07:52:38.391Z,96145.34
2018-07-23T07:55:09.046Z,96145.59
2018-07-23T07:57:39.341Z,96151.76
2018-07-23T08:00:10.217Z,96150.09
2018-07-23T08:02:41.601Z,96147.60
2018-07-23T08:05:11.913Z,96147.47
2018-07-23T08:07:43.080Z,96151.33
2018-07-23T08:10:17.388Z,96158.48
2018-07-23T08:12:49.575Z,96148.93
2018-07-23T08:15:25.050Z,96159.65
2018-07-23T08:17:58.919Z,96153.20
2018-07-23T08:20:29.312Z,96157.34
2018-07-23T08:23:00.240Z,96156.01
2018-07-23T08:25:30.777Z,96158.27
2018-07-23T08:28:01.478Z,96164.75
2018-07-23T08:30:34.786Z,96161.78
2018-07-23T08:33:07.494Z,96165.44
2018-07-23T08:35:45.219Z,96163.16
2018-07-23T08:38:18.517Z,96160.66
2018-07-23T08:40:56.093Z,96160.33
2018-07-23T08:43:29.416Z,96169.41
2018-07-23T08:46:01.011Z,96165.32
2018-07-23T08:48:31.659Z,96163.84
2018-07-23T08:51:08.811Z,96166.69
2018-07-23T08:53:41.223Z,96166.13
2018-07-23T08:56:18.551Z,96165.20
2018-07-23T08:58:50.466Z,96168.83
2018-07-23T09:01:21.460Z,96164.53
2018-07-23T09:03:52.465Z,96162.59
2018-07-23T09:06:24.981Z,96164.66
2018-07-23T09:08:57.592Z,96161.10
2018-07-23T09:11:28.758Z,96162.88
2018-07-23T09:13:59.365Z,96168.55
2018-07-23T09:16:32.271Z,96163.55
2018-07-23T09:19:08.364Z,96164.88
2018-07-23T09:21:38.541Z,96164.00
2018-07-23T09:24:13.693Z,96169.41
2018-07-23T09:26:44.964Z,96162.00
2018-07-23T09:29:15.996Z,96176.90
2018-07-23T09:31:48.609Z,96171.62
2018-07-23T09:34:19.483Z,96167.81
2018-07-23T09:36:49.648Z,96167.95
2018-07-23T09:39:21.060Z,96169.21
2018-07-23T09:41:51.226Z,96164.86
2018-07-23T09:44:23.107Z,96162.56
2018-07-23T09:46:55.284Z,96159.47
2018-07-23T09:49:25.496Z,96157.13
2018-07-23T09:51:56.495Z,96157.27
2018-07-23T09:54:27.231Z,96154.42
2018-07-23T09:56:57.347Z,96150.19
2018-07-23T09:59:27.567Z,96146.64
2018-07-23T10:02:00.888Z,96145.39
2018-07-23T10:04:37.602Z,96143.08
2018-07-23T10:07:07.734Z,96142.69
2018-07-23T10:09:37.940Z,96153.70
2018-07-23T10:12:09.712Z,96145.71
2018-07-23T10:14:40.253Z,96152.57
2018-07-23T10:17:10.977Z,96152.06
2018-07-23T10:19:41.177Z,96149.66
2018-07-23T10:22:11.939Z,96144.53
2018-07-23T10:24:43.993Z,96143.73
2018-07-23T10:27:15.223Z,96147.23
2018-07-23T10:29:46.282Z,96143.14
2018-07-23T10:32:18.154Z,96141.92
2018-07-23T10:34:48.639Z,96147.87
2018-07-23T10:37:19.816Z,96147.64
2018-07-23T10:39:52.078Z,96145.95
2018-07-23T10:42:23.263Z,96137.39
2018-07-23T10:44:54.515Z,96142.77
2018-07-23T10:47:25.986Z,96136.03
2018-07-23T10:50:00.532Z,96135.16
2018-07-23T10:52:30.998Z,96138.01
2018-07-23T10:55:02.431Z,96136.13
2018-07-23T10:57:33.588Z,96137.84
2018-07-23T11:00:04.265Z,96131.90
2018-07-23T11:02:41.841Z,96132.38
2018-07-23T11:05:13.518Z,96129.01
2018-07-23T11:08:10.754Z,96119.91
2018-07-23T11:13:40.047Z,96122.14
2018-07-23T11:16:12.267Z,96131.58
2018-07-23T11:18:42.664Z,96129.85
2018-07-23T11:21:13.593Z,96135.68
2018-07-23T11:23:43.818Z,96134.03
2018-07-23T11:26:15.558Z,96129.23
2018-07-23T11:28:46.378Z,96131.22
2018-07-23T11:31:17.046Z,96131.03
2018-07-23T11:33:48.469Z,96121.73
2018-07-23T11:36:19.134Z,96116.13
2018-07-23T11:38:53.361Z,96113.98
2018-07-23T11:41:26.980Z,96115.63
2018-07-23T11:43:57.734Z,96120.32
2018-07-23T11:46:28.882Z,96117.73
2018-07-23T11:48:59.474Z,96123.56
2018-07-23T11:51:33.381Z,96127.37
2018-07-23T11:54:04.523Z,96117.59
2018-07-23T11:56:37.015Z,96118.80
2018-07-23T11:59:08.493Z,96110.26
2018-07-23T12:01:38.901Z,96115.78
2018-07-23T12:04:12.494Z,96116.72
2018-07-23T12:06:43.486Z,96116.73
2018-07-23T12:09:14.710Z,96118.73
2018-07-23T12:11:46.441Z,96111.24
2018-07-23T12:14:18.439Z,96101.77
2018-07-23T12:16:50.792Z,96091.45
2018-07-23T12:19:31.289Z,96097.14
2018-07-23T12:22:05.300Z,96105.56
2018-07-23T12:24:39.001Z,96109.71
2018-07-23T12:27:10.038Z,96105.01
2018-07-23T12:29:40.196Z,96107.95
2018-07-23T12:32:12.996Z,96099.47
2018-07-23T12:34:45.761Z,96106.69
2018-07-23T12:37:16.635Z,96101.23
2018-07-23T12:39:55.434Z,96104.08
2018-07-23T12:42:26.529Z,96101.86
2018-07-23T12:44:57.518Z,96105.30
2018-07-23T12:47:32.406Z,96100.53
2018-07-23T12:50:02.957Z,96099.37
2018-07-23T12:52:38.741Z,96091.37
2018-07-23T12:55:13.309Z,96096.75
2018-07-23T12:57:47.799Z,96095.04
2018-07-23T13:00:18.679Z,96091.12
2018-07-23T13:02:50.190Z,96093.24
2018-07-23T13:05:24.303Z,96092.66
2018-07-23T13:07:55.441Z,96084.73
2018-07-23T13:10:27.569Z,96084.47
2018-07-23T13:12:59.126Z,96087.48
2018-07-23T13:15:31.340Z,96079.61
2018-07-23T13:18:04.516Z,96089.05
2018-07-23T13:20:35.479Z,96081.67
2018-07-23T13:23:07.622Z,96084.23
2018-07-23T13:25:40.113Z,96076.94
2018-07-23T13:28:11.836Z,96084.41
2018-07-23T13:30:50.663Z,96087.38
2018-07-23T13:33:46.754Z,96086.52
2018-07-23T13:36:17.861Z,96085.81
2018-07-23T13:38:51.574Z,96084.00
2018-07-23T13:41:22.715Z,96085.52
2018-07-23T13:43:53.589Z,96085.17
2018-07-23T13:46:27.701Z,96080.61
2018-07-23T13:49:01.534Z,96081.41
2018-07-23T13:51:36.231Z,96073.70
2018-07-23T13:54:14.611Z,96069.77
2018-07-23T13:56:47.096Z,96072.48
2018-07-23T13:59:17.335Z,96070.35
2018-07-23T14:01:47.811Z,96061.19
2018-07-23T14:04:19.676Z,96066.69
2018-07-23T14:06:50.567Z,96064.97
2018-07-23T14:09:21.238Z,96065.06
2018-07-23T14:11:52.135Z,96063.66
2018-07-23T14:14:23.329Z,96057.05
2018-07-23T14:16:53.693Z,96054.89
2018-07-23T14:19:26.934Z,96060.37
2018-07-23T14:22:01.964Z,96069.83
2018-07-23T14:24:33.384Z,96070.02
2018-07-23T14:27:04.280Z,96069.16
2018-07-23T14:29:35.034Z,96069.65
2018-07-23T14:32:07.840Z,96055.20
2018-07-23T14:34:39.234Z,96060.33
2018-07-23T14:37:10.145Z,96055.49
2018-07-23T14:39:40.380Z,96053.87
2018-07-23T14:42:10.607Z,96048.48
2018-07-23T14:44:42.252Z,96038.67
2018-07-23T14:47:14.031Z,96036.44
2018-07-23T14:49:44.275Z,96043.44
2018-07-23T14:52:17.429Z,96042.91
2018-07-23T14:54:47.631Z,96050.42
2018-07-23T14:57:17.868Z,96051.56
2018-07-23T14:59:51.605Z,96051.25
2018-07-23T15:02:22.838Z,96050.06
2018-07-23T15:04:53.558Z,96045.45
2018-07-23T15:07:25.194Z,96043.95
2018-07-23T15:09:56.141Z,96036.70
2018-07-23T15:12:27.533Z,96041.41
2018-07-23T15:14:59.278Z,96050.36
2018-07-23T15:17:39.301Z,96048.97
2018-07-23T15:20:12.687Z,96043.38
2018-07-23T15:22:43.941Z,96042.39
2018-07-23T15:25:15.504Z,96041.30
2018-07-23T15:27:46.396Z,96036.17
2018-07-23T15:30:16.784Z,96036.17
2018-07-23T15:32:49.090Z,96032.21
2018-07-23T15:35:19.926Z,96026.08
2018-07-23T15:37:50.439Z,96025.70
2018-07-23T15:40:21.467Z,96027.25
2018-07-23T15:43:04.881Z,96028.77
2018-07-23T15:45:38.809Z,96023.73
2018-07-23T15:48:09.598Z,96025.85
2018-07-23T15:50:44.923Z,96018.78
2018-07-23T15:53:17.285Z,96021.27
2018-07-23T15:55:49.573Z,96024.47
2018-07-23T15:58:21.773Z,96018.97
2018-07-23T16:00:52.435Z,96017.33
2018-07-23T16:03:22.952Z,96020.13
2018-07-23T16:05:54.588Z,96026.64
2018-07-23T16:08:25.217Z,96026.35
2018-07-23T16:10:55.632Z,96027.02
2018-07-23T16:13:26.963Z,96022.78
2018-07-23T16:15:57.931Z,96020.58
2018-07-23T16:18:29.933Z,96021.95
2018-07-23T16:21:01.340Z,96026.86
2018-07-23T16:23:33.504Z,96024.69
2018-07-23T16:26:05.273Z,96019.72
2018-07-23T16:28:35.491Z,96024.95
2018-07-23T16:31:12.436Z,96021.09
2018-07-23T16:33:42.563Z,96018.44
2018-07-23T16:36:13.484Z,96020.64
2018-07-23T16:38:46.366Z,96018.64
2018-07-23T16:41:20.871Z,96020.44
2018-07-23T16:43:55.530Z,96020.09
2018-07-23T16:46:27.000Z,96009.99
2018-07-23T16:48:59.740Z,96014.72
2018-07-23T16:51:30.190Z,96018.44
2018-07-23T16:54:02.424Z,96014.92
2018-07-23T16:56:34.640Z,96021.30
2018-07-23T16:59:06.361Z,96010.58
2018-07-23T17:01:39.052Z,96014.48
2018-07-23T17:04:13.150Z,96014.48
2018-07-23T17:06:43.720Z,96018.95
2018-07-23T17:09:14.332Z,96024.32
2018-07-23T17:11:45.644Z,96021.99
2018-07-23T17:14:17.415Z,96020.40
2018-07-23T17:16:47.837Z,96023.50
2018-07-23T17:19:20.471Z,96030.17
2018-07-23T17:21:56.819Z,96032.38
2018-07-23T17:24:29.475Z,96029.27
2018-07-23T17:27:03.704Z,96033.51
2018-07-23T17:29:34.579Z,96033.72
2018-07-23T17:32:08.152Z,96030.92
2018-07-23T17:34:40.463Z,96029.05
2018-07-23T17:37:11.891Z,96035.38
2018-07-23T17:39:44.349Z,96042.52
2018-07-23T17:42:14.850Z,96044.56
2018-07-23T17:44:46.639Z,96049.69
2018-07-23T17:47:18.314Z,96048.34
2018-07-23T17:49:49.427Z,96042.29
2018-07-23T17:52:19.595Z,96051.33
2018-07-23T17:54:50.240Z,96042.80
2018-07-23T17:57:23.674Z,96051.97
2018-07-23T17:59:55.890Z,96050.95
2018-07-23T18:02:30.905Z,96058.20
2018-07-23T18:05:01.748Z,96061.31
2018-07-23T18:07:33.707Z,96069.02
2018-07-23T18:10:04.583Z,96062.85
2018-07-23T18:12:35.655Z,96061.75
2018-07-23T18:15:06.482Z,96066.85
2018-07-23T18:17:48.793Z,96067.02
2018-07-23T18:20:23.589Z,96069.78
2018-07-23T18:22:55.475Z,96068.66
2018-07-23T18:25:26.692Z,96077.58
2018-07-23T18:27:58.037Z,96072.27
2018-07-23T18:30:28.314Z,96077.42
2018-07-23T18:33:01.392Z,96079.26
2018-07-23T18:35:35.534Z,96081.94
2018-07-23T18:38:06.583Z,96085.18
2018-07-23T18:40:38.156Z,96086.03
2018-07-23T18:43:10.302Z,96086.64
2018-07-23T18:45:44.469Z,96088.19
2018-07-23T18:48:32.395Z,96089.02
2018-07-23T18:51:03.838Z,96093.94
2018-07-23T18:53:36.680Z,96096.02
2018-07-23T18:56:08.426Z,96094.66
2018-07-23T18:58:40.263Z,96101.48
2018-07-23T19:01:14.075Z,96105.94
2018-07-23T19:09:35.622Z,96111.69
2018-07-23T19:12:07.438Z,96122.88
2018-07-23T19:14:39.599Z,96127.58
2018-07-23T19:17:12.619Z,96134.05
2018-07-23T19:19:43.380Z,96126.01
2018-07-23T19:22:14.938Z,96135.25
2018-07-23T19:24:57.419Z,96137.81
2018-07-23T19:27:30.604Z,96143.18
2018-07-23T19:30:05.426Z,96144.81
2018-07-23T19:32:37.176Z,96149.40
2018-07-23T19:35:11.276Z,96153.13
2018-07-23T19:37:43.064Z,96152.18
2018-07-23T19:40:20.257Z,96153.77
2018-07-23T19:42:51.800Z,96160.55
2018-07-23T19:45:26.332Z,96156.70
2018-07-23T19:47:57.657Z,96162.11
2018-07-23T19:50:37.389Z,96162.05
2018-07-23T19:53:07.985Z,96160.41
2018-07-23T19:55:45.688Z,96167.60
2018-07-23T19:58:16.855Z,96165.79
2018-07-23T20:00:50.409Z,96161.46
2018-07-23T20:03:23.052Z,96163.88
2018-07-23T20:05:56.427Z,96162.05
2018-07-23T20:08:32.838Z,96161.65
2018-07-23T20:11:03.747Z,96163.50
2018-07-23T20:13:37.411Z,96162.47
2018-07-23T20:16:16.686Z,96157.59
2018-07-23T20:18:48.837Z,96160.63
2018-07-23T20:21:23.223Z,96157.74
2018-07-23T20:24:06.435Z,96160.07
2018-07-23T20:26:39.686Z,96158.09
2018-07-23T20:29:10.405Z,96155.86
2018-07-23T20:31:44.034Z,96156.39
2018-07-23T20:34:17.599Z,96156.38
2018-07-23T20:36:47.668Z,96156.05
2018-07-23T20:39:25.639Z,96157.64
2018-07-23T20:41:56.771Z,96155.86
2018-07-23T20:44:28.845Z,96156.15
2018-07-23T20:47:01.015Z,96152.17
2018-07-23T20:49:33.820Z,96153.72
2018-07-23T20:52:11.616Z,96157.70
2018-07-23T20:54:45.030Z,96155.84
2018-07-23T20:57:16.400Z,96154.06
2018-07-23T20:59:54.707Z,96158.52
2018-07-23T21:02:28.128Z,96161.99
2018-07-23T21:05:00.871Z,96160.48
2018-07-23T21:07:35.105Z,96162.45
2018-07-23T21:10:09.985Z,96160.90
2018-07-23T21:12:44.099Z,96161.54
2018-07-23T21:15:16.532Z,96161.16
2018-07-23T21:17:48.255Z,96164.27
2018-07-23T21:20:18.460Z,96164.63
2018-07-23T21:22:49.695Z,96160.39
2018-07-23T21:25:20.237Z,96164.20
2018-07-23T21:27:51.448Z,96169.19
2018-07-23T21:30:22.548Z,96162.41
2018-07-23T21:32:53.254Z,96170.34
2018-07-23T21:35:26.467Z,96163.91
2018-07-23T21:37:56.556Z,96164.81
2018-07-23T21:40:27.406Z,96163.60
2018-07-23T21:42:57.903Z,96160.83
2018-07-23T21:45:30.319Z,96161.44
2018-07-23T21:48:03.300Z,96162.17
2018-07-23T21:50:34.307Z,96163.08
2018-07-23T21:53:05.282Z,96163.03
2018-07-23T21:55:39.196Z,96167.64
2018-07-23T21:58:10.316Z,96175.59
2018-07-23T22:00:43.720Z,96170.17
2018-07-23T22:03:14.485Z,96170.83
2018-07-23T22:05:46.691Z,96170.20
2018-07-23T22:08:18.208Z,96175.44
2018-07-23T22:10:48.745Z,96176.03
2018-07-23T22:13:20.974Z,96179.63
2018-07-23T22:15:53.792Z,96175.74
2018-07-23T22:18:24.956Z,96176.89
2018-07-23T22:20:56.970Z,96177.27
2018-07-23T22:23:27.675Z,96180.38
2018-07-23T22:25:57.762Z,96178.23
2018-07-23T22:28:29.531Z,96176.37
2018-07-23T22:31:00.519Z,96184.48
2018-07-23T22:33:33.143Z,96175.36
2018-07-23T22:36:03.872Z,96174.63
2018-07-23T22:38:36.059Z,96171.67
2018-07-23T22:41:06.249Z,96182.62
2018-07-23T22:43:38.460Z,96170.31
2018-07-23T22:46:12.121Z,96170.06
2018-07-23T22:48:44.457Z,96174.11
2018-07-23T22:51:15.549Z,96167.97
2018-07-23T22:53:46.356Z,96167.97
2018-07-23T22:56:17.459Z,96162.61
2018-07-23T22:58:48.372Z,96162.77
2018-07-23T23:01:18.994Z,96170.70
2018-07-23T23:03:52.367Z,96165.59
2018-07-23T23:06:27.282Z,96173.85
2018-07-23T23:08:58.405Z,96177.80
2018-07-23T23:11:29.784Z,96173.45
2018-07-23T23:14:00.223Z,96171.26
2018-07-23T23:16:31.400Z,96173.96
2018-07-23T23:19:03.068Z,96175.02
2018-07-23T23:21:36.941Z,96176.08
2018-07-23T23:24:07.693Z,96175.27
2018-07-23T23:26:38.574Z,96172.09
2018-07-23T23:29:09.219Z,96170.56
2018-07-23T23:31:39.821Z,96178.89
2018-07-23T23:34:09.911Z,96183.02
2018-07-23T23:36:40.095Z,96186.40
2018-07-23T23:39:12.227Z,96182.16
2018-07-23T23:41:42.349Z,96185.26
2018-07-23T23:44:12.424Z,96181.53
2018-07-23T23:46:42.583Z,96181.79
2018-07-23T23:49:14.494Z,96188.77
2018-07-23T23:51:44.633Z,96187.92
2018-07-23T23:54:14.704Z,96180.70
2018-07-23T23:56:44.900Z,96180.80
2018-07-23T23:59:15.417Z,96186.27
